sensor_id;sensor_type;location;lat;lon;timestamp;temperature;humidity
6865;DHT22;3471;49.678;8.388;2023-04-23T00:01:26;15.40;99.90
6865;DHT22;3471;49.678;8.388;2023-04-23T00:03:55;15.40;99.90
6865;DHT22;3471;49.678;8.388;2023-04-23T00:06:22;15.30;99.90
6865;DHT22;3471;49.678;8.388;2023-04-23T00:08:49;15.30;99.90
6865;DHT22;3471;49.678;8.388;2023-04-23T00:11:16;15.20;99.90
6865;DHT22;3471;49.678;8.388;2023-04-23T00:13:42;15.20;99.90
6865;DHT22;3471;49.678;8.388;2023-04-23T00:16:09;15.20;99.90
6865;DHT22;3471;49.678;8.388;2023-04-23T00:18:35;15.20;99.90
6865;DHT22;3471;49.678;8.388;2023-04-23T00:21:00;15.20;99.90
6865;DHT22;3471;49.678;8.388;2023-04-23T00:23:27;15.20;99.90
6865;DHT22;3471;49.678;8.388;2023-04-23T00:25:53;15.10;99.90
6865;DHT22;3471;49.678;8.388;2023-04-23T00:28:18;15.00;99.90
6865;DHT22;3471;49.678;8.388;2023-04-23T00:30:44;15.00;99.90
6865;DHT22;3471;49.678;8.388;2023-04-23T00:33:10;14.90;99.90
6865;DHT22;3471;49.678;8.388;2023-04-23T00:35:35;14.90;99.90
6865;DHT22;3471;49.678;8.388;2023-04-23T00:38:01;14.80;99.90
6865;DHT22;3471;49.678;8.388;2023-04-23T00:40:27;14.70;99.90
6865;DHT22;3471;49.678;8.388;2023-04-23T00:42:52;14.70;99.90
6865;DHT22;3471;49.678;8.388;2023-04-23T00:45:20;14.60;99.90
6865;DHT22;3471;49.678;8.388;2023-04-23T00:47:45;14.60;99.90
6865;DHT22;3471;49.678;8.388;2023-04-23T00:50:13;14.60;99.90
6865;DHT22;3471;49.678;8.388;2023-04-23T00:52:39;14.50;99.90
6865;DHT22;3471;49.678;8.388;2023-04-23T00:55:06;14.50;99.90
6865;DHT22;3471;49.678;8.388;2023-04-23T00:57:36;14.50;99.90
6865;DHT22;3471;49.678;8.388;2023-04-23T01:00:06;14.50;99.90
6865;DHT22;3471;49.678;8.388;2023-04-23T01:02:33;14.50;99.90
6865;DHT22;3471;49.678;8.388;2023-04-23T01:05:01;14.40;99.90
6865;DHT22;3471;49.678;8.388;2023-04-23T01:07:28;14.40;99.90
6865;DHT22;3471;49.678;8.388;2023-04-23T01:09:54;14.40;99.90
6865;DHT22;3471;49.678;8.388;2023-04-23T01:12:20;14.30;99.90
6865;DHT22;3471;49.678;8.388;2023-04-23T01:14:45;14.30;99.90
6865;DHT22;3471;49.678;8.388;2023-04-23T01:17:11;14.30;99.90
6865;DHT22;3471;49.678;8.388;2023-04-23T01:19:38;14.30;99.90
6865;DHT22;3471;49.678;8.388;2023-04-23T01:22:11;14.30;99.90
6865;DHT22;3471;49.678;8.388;2023-04-23T01:24:38;14.30;99.90
6865;DHT22;3471;49.678;8.388;2023-04-23T01:27:04;14.30;99.90
6865;DHT22;3471;49.678;8.388;2023-04-23T01:29:31;14.30;99.90
6865;DHT22;3471;49.678;8.388;2023-04-23T01:31:58;14.40;99.90
6865;DHT22;3471;49.678;8.388;2023-04-23T01:34:24;14.30;99.90
6865;DHT22;3471;49.678;8.388;2023-04-23T01:36:50;14.30;99.90
6865;DHT22;3471;49.678;8.388;2023-04-23T01:39:16;14.30;99.90
6865;DHT22;3471;49.678;8.388;2023-04-23T01:41:42;14.20;99.90
6865;DHT22;3471;49.678;8.388;2023-04-23T01:44:08;14.20;99.90
6865;DHT22;3471;49.678;8.388;2023-04-23T01:46:34;14.20;99.90
6865;DHT22;3471;49.678;8.388;2023-04-23T01:48:59;14.30;99.90
6865;DHT22;3471;49.678;8.388;2023-04-23T01:51:25;14.30;99.90
6865;DHT22;3471;49.678;8.388;2023-04-23T01:53:51;14.30;99.90
6865;DHT22;3471;49.678;8.388;2023-04-23T01:56:18;14.40;99.90
6865;DHT22;3471;49.678;8.388;2023-04-23T01:58:45;14.40;99.90
6865;DHT22;3471;49.678;8.388;2023-04-23T02:01:11;14.40;99.90
6865;DHT22;3471;49.678;8.388;2023-04-23T02:03:36;14.40;99.90
6865;DHT22;3471;49.678;8.388;2023-04-23T02:06:02;14.40;99.90
6865;DHT22;3471;49.678;8.388;2023-04-23T02:08:29;14.40;99.90
6865;DHT22;3471;49.678;8.388;2023-04-23T02:10:55;14.40;99.90
6865;DHT22;3471;49.678;8.388;2023-04-23T02:13:21;14.50;99.90
6865;DHT22;3471;49.678;8.388;2023-04-23T02:15:47;14.50;99.90
6865;DHT22;3471;49.678;8.388;2023-04-23T02:18:13;14.50;99.90
6865;DHT22;3471;49.678;8.388;2023-04-23T02:20:38;14.50;99.90
6865;DHT22;3471;49.678;8.388;2023-04-23T02:23:07;14.50;99.90
6865;DHT22;3471;49.678;8.388;2023-04-23T02:25:33;14.60;99.90
6865;DHT22;3471;49.678;8.388;2023-04-23T02:27:58;14.50;99.90
6865;DHT22;3471;49.678;8.388;2023-04-23T02:30:26;14.60;99.90
6865;DHT22;3471;49.678;8.388;2023-04-23T02:32:52;14.50;99.90
6865;DHT22;3471;49.678;8.388;2023-04-23T02:35:17;14.50;99.90
6865;DHT22;3471;49.678;8.388;2023-04-23T02:37:43;14.50;99.90
6865;DHT22;3471;49.678;8.388;2023-04-23T02:40:09;14.50;99.90
6865;DHT22;3471;49.678;8.388;2023-04-23T02:42:35;14.60;99.90
6865;DHT22;3471;49.678;8.388;2023-04-23T02:45:00;14.60;99.90
6865;DHT22;3471;49.678;8.388;2023-04-23T02:47:26;14.60;99.90
6865;DHT22;3471;49.678;8.388;2023-04-23T02:49:52;14.50;99.90
6865;DHT22;3471;49.678;8.388;2023-04-23T02:52:17;14.50;99.90
6865;DHT22;3471;49.678;8.388;2023-04-23T02:54:43;14.50;99.90
6865;DHT22;3471;49.678;8.388;2023-04-23T02:57:08;14.50;99.90
6865;DHT22;3471;49.678;8.388;2023-04-23T02:59:34;14.40;99.90
6865;DHT22;3471;49.678;8.388;2023-04-23T03:02:00;14.40;99.90
6865;DHT22;3471;49.678;8.388;2023-04-23T03:04:26;14.40;99.90
6865;DHT22;3471;49.678;8.388;2023-04-23T03:06:52;14.40;99.90
6865;DHT22;3471;49.678;8.388;2023-04-23T03:09:17;14.40;99.90
6865;DHT22;3471;49.678;8.388;2023-04-23T03:11:43;14.40;99.90
6865;DHT22;3471;49.678;8.388;2023-04-23T03:14:08;14.40;99.90
6865;DHT22;3471;49.678;8.388;2023-04-23T03:16:34;14.50;99.90
6865;DHT22;3471;49.678;8.388;2023-04-23T03:19:00;14.50;99.90
6865;DHT22;3471;49.678;8.388;2023-04-23T03:21:25;14.50;99.90
6865;DHT22;3471;49.678;8.388;2023-04-23T03:23:51;14.60;99.90
6865;DHT22;3471;49.678;8.388;2023-04-23T03:26:17;14.60;99.90
6865;DHT22;3471;49.678;8.388;2023-04-23T03:28:43;14.60;99.90
6865;DHT22;3471;49.678;8.388;2023-04-23T03:31:08;14.60;99.90
6865;DHT22;3471;49.678;8.388;2023-04-23T03:33:34;14.60;99.90
6865;DHT22;3471;49.678;8.388;2023-04-23T03:35:59;14.60;99.90
6865;DHT22;3471;49.678;8.388;2023-04-23T03:38:25;14.60;99.90
6865;DHT22;3471;49.678;8.388;2023-04-23T03:40:51;14.50;99.90
6865;DHT22;3471;49.678;8.388;2023-04-23T03:43:17;14.50;99.90
6865;DHT22;3471;49.678;8.388;2023-04-23T03:45:42;14.50;99.90
6865;DHT22;3471;49.678;8.388;2023-04-23T03:48:08;14.50;99.90
6865;DHT22;3471;49.678;8.388;2023-04-23T03:50:33;14.40;99.90
6865;DHT22;3471;49.678;8.388;2023-04-23T03:53:03;14.40;99.90
6865;DHT22;3471;49.678;8.388;2023-04-23T03:55:29;14.40;99.90
6865;DHT22;3471;49.678;8.388;2023-04-23T03:57:54;14.30;99.90
6865;DHT22;3471;49.678;8.388;2023-04-23T04:00:20;14.40;99.90
6865;DHT22;3471;49.678;8.388;2023-04-23T04:02:46;14.30;99.90
6865;DHT22;3471;49.678;8.388;2023-04-23T04:05:11;14.30;99.90
6865;DHT22;3471;49.678;8.388;2023-04-23T04:07:37;14.30;99.90
6865;DHT22;3471;49.678;8.388;2023-04-23T04:10:05;14.30;99.90
6865;DHT22;3471;49.678;8.388;2023-04-23T04:12:30;14.30;99.90
6865;DHT22;3471;49.678;8.388;2023-04-23T04:14:56;14.30;99.90
6865;DHT22;3471;49.678;8.388;2023-04-23T04:17:22;14.30;99.90
6865;DHT22;3471;49.678;8.388;2023-04-23T04:19:47;14.30;99.90
6865;DHT22;3471;49.678;8.388;2023-04-23T04:22:13;14.20;99.90
6865;DHT22;3471;49.678;8.388;2023-04-23T04:24:39;14.10;99.90
6865;DHT22;3471;49.678;8.388;2023-04-23T04:27:06;14.10;99.90
6865;DHT22;3471;49.678;8.388;2023-04-23T04:29:32;14.10;99.90
6865;DHT22;3471;49.678;8.388;2023-04-23T04:31:58;14.00;99.90
6865;DHT22;3471;49.678;8.388;2023-04-23T04:34:24;14.00;99.90
6865;DHT22;3471;49.678;8.388;2023-04-23T04:36:50;13.90;99.90
6865;DHT22;3471;49.678;8.388;2023-04-23T04:39:18;13.90;99.90
6865;DHT22;3471;49.678;8.388;2023-04-23T04:41:44;13.90;99.90
6865;DHT22;3471;49.678;8.388;2023-04-23T04:44:10;13.90;99.90
6865;DHT22;3471;49.678;8.388;2023-04-23T04:46:35;13.90;99.90
6865;DHT22;3471;49.678;8.388;2023-04-23T04:49:10;13.90;99.90
6865;DHT22;3471;49.678;8.388;2023-04-23T04:51:36;13.90;99.90
6865;DHT22;3471;49.678;8.388;2023-04-23T04:54:02;13.80;99.90
6865;DHT22;3471;49.678;8.388;2023-04-23T04:56:28;13.70;99.90
6865;DHT22;3471;49.678;8.388;2023-04-23T04:58:54;13.70;99.90
6865;DHT22;3471;49.678;8.388;2023-04-23T05:01:23;13.60;99.90
6865;DHT22;3471;49.678;8.388;2023-04-23T05:03:49;13.70;99.90
6865;DHT22;3471;49.678;8.388;2023-04-23T05:06:15;13.70;99.90
6865;DHT22;3471;49.678;8.388;2023-04-23T05:08:41;13.70;99.90
6865;DHT22;3471;49.678;8.388;2023-04-23T05:11:07;13.70;99.90
6865;DHT22;3471;49.678;8.388;2023-04-23T05:13:33;13.70;99.90
6865;DHT22;3471;49.678;8.388;2023-04-23T05:15:59;13.70;99.90
6865;DHT22;3471;49.678;8.388;2023-04-23T05:18:24;13.80;99.90
6865;DHT22;3471;49.678;8.388;2023-04-23T05:20:50;13.80;99.90
6865;DHT22;3471;49.678;8.388;2023-04-23T05:23:16;13.90;99.90
6865;DHT22;3471;49.678;8.388;2023-04-23T05:25:42;13.90;99.90
6865;DHT22;3471;49.678;8.388;2023-04-23T05:28:07;13.90;99.90
6865;DHT22;3471;49.678;8.388;2023-04-23T05:30:33;14.00;99.90
6865;DHT22;3471;49.678;8.388;2023-04-23T05:32:58;14.00;99.90
6865;DHT22;3471;49.678;8.388;2023-04-23T05:35:24;14.10;99.90
6865;DHT22;3471;49.678;8.388;2023-04-23T05:37:50;14.10;99.90
6865;DHT22;3471;49.678;8.388;2023-04-23T05:40:15;14.20;99.90
6865;DHT22;3471;49.678;8.388;2023-04-23T05:42:41;14.30;99.90
6865;DHT22;3471;49.678;8.388;2023-04-23T05:45:07;14.30;99.90
6865;DHT22;3471;49.678;8.388;2023-04-23T05:47:33;14.30;99.90
6865;DHT22;3471;49.678;8.388;2023-04-23T05:49:59;14.30;99.90
6865;DHT22;3471;49.678;8.388;2023-04-23T05:52:26;14.40;99.90
6865;DHT22;3471;49.678;8.388;2023-04-23T05:54:51;14.40;99.90
6865;DHT22;3471;49.678;8.388;2023-04-23T05:57:17;14.50;99.90
6865;DHT22;3471;49.678;8.388;2023-04-23T05:59:42;14.50;99.90
6865;DHT22;3471;49.678;8.388;2023-04-23T06:02:09;14.60;99.90
6865;DHT22;3471;49.678;8.388;2023-04-23T06:04:35;14.70;99.90
6865;DHT22;3471;49.678;8.388;2023-04-23T06:07:01;14.80;99.90
6865;DHT22;3471;49.678;8.388;2023-04-23T06:09:26;14.90;99.90
6865;DHT22;3471;49.678;8.388;2023-04-23T06:11:52;14.90;99.90
6865;DHT22;3471;49.678;8.388;2023-04-23T06:14:18;14.90;99.90
6865;DHT22;3471;49.678;8.388;2023-04-23T06:16:43;14.90;99.90
6865;DHT22;3471;49.678;8.388;2023-04-23T06:19:09;14.90;99.90
6865;DHT22;3471;49.678;8.388;2023-04-23T06:21:35;15.00;99.90
6865;DHT22;3471;49.678;8.388;2023-04-23T06:24:01;15.00;99.90
6865;DHT22;3471;49.678;8.388;2023-04-23T06:26:27;15.00;99.90
6865;DHT22;3471;49.678;8.388;2023-04-23T06:28:52;15.10;99.90
6865;DHT22;3471;49.678;8.388;2023-04-23T06:31:18;15.20;99.90
6865;DHT22;3471;49.678;8.388;2023-04-23T06:33:44;15.20;99.90
6865;DHT22;3471;49.678;8.388;2023-04-23T06:36:09;15.30;99.90
6865;DHT22;3471;49.678;8.388;2023-04-23T06:38:35;15.40;99.90
6865;DHT22;3471;49.678;8.388;2023-04-23T06:41:02;15.50;99.90
6865;DHT22;3471;49.678;8.388;2023-04-23T06:43:28;15.70;99.90
6865;DHT22;3471;49.678;8.388;2023-04-23T06:45:54;15.80;99.90
6865;DHT22;3471;49.678;8.388;2023-04-23T06:48:20;15.90;99.90
6865;DHT22;3471;49.678;8.388;2023-04-23T06:50:49;16.00;99.90
6865;DHT22;3471;49.678;8.388;2023-04-23T06:53:15;16.00;99.90
6865;DHT22;3471;49.678;8.388;2023-04-23T06:55:40;16.10;99.90
6865;DHT22;3471;49.678;8.388;2023-04-23T06:58:06;16.20;99.90
6865;DHT22;3471;49.678;8.388;2023-04-23T07:00:32;16.20;99.90
6865;DHT22;3471;49.678;8.388;2023-04-23T07:02:57;16.30;99.90
6865;DHT22;3471;49.678;8.388;2023-04-23T07:05:23;16.40;99.90
6865;DHT22;3471;49.678;8.388;2023-04-23T07:07:49;16.50;99.90
6865;DHT22;3471;49.678;8.388;2023-04-23T07:10:14;16.70;99.90
6865;DHT22;3471;49.678;8.388;2023-04-23T07:12:40;16.70;99.90
6865;DHT22;3471;49.678;8.388;2023-04-23T07:15:06;16.80;99.90
6865;DHT22;3471;49.678;8.388;2023-04-23T07:17:33;16.80;99.90
6865;DHT22;3471;49.678;8.388;2023-04-23T07:19:58;16.90;99.90
6865;DHT22;3471;49.678;8.388;2023-04-23T07:22:25;16.90;99.90
6865;DHT22;3471;49.678;8.388;2023-04-23T07:24:51;17.00;99.90
6865;DHT22;3471;49.678;8.388;2023-04-23T07:27:17;17.10;99.90
6865;DHT22;3471;49.678;8.388;2023-04-23T07:29:43;17.20;99.90
6865;DHT22;3471;49.678;8.388;2023-04-23T07:32:08;17.30;99.90
6865;DHT22;3471;49.678;8.388;2023-04-23T07:34:34;17.40;99.90
6865;DHT22;3471;49.678;8.388;2023-04-23T07:37:02;17.50;99.90
6865;DHT22;3471;49.678;8.388;2023-04-23T07:39:28;17.60;99.90
6865;DHT22;3471;49.678;8.388;2023-04-23T07:41:54;17.70;99.90
6865;DHT22;3471;49.678;8.388;2023-04-23T07:44:21;17.80;99.90
6865;DHT22;3471;49.678;8.388;2023-04-23T07:46:46;17.80;99.90
6865;DHT22;3471;49.678;8.388;2023-04-23T07:49:12;18.00;99.90
6865;DHT22;3471;49.678;8.388;2023-04-23T07:51:37;18.00;99.90
6865;DHT22;3471;49.678;8.388;2023-04-23T07:54:03;18.20;99.90
6865;DHT22;3471;49.678;8.388;2023-04-23T07:56:29;18.30;99.90
6865;DHT22;3471;49.678;8.388;2023-04-23T07:58:57;18.40;99.90
6865;DHT22;3471;49.678;8.388;2023-04-23T08:01:23;18.40;99.90
6865;DHT22;3471;49.678;8.388;2023-04-23T08:03:48;18.40;99.90
6865;DHT22;3471;49.678;8.388;2023-04-23T08:06:14;18.40;99.90
6865;DHT22;3471;49.678;8.388;2023-04-23T08:08:39;18.40;99.90
6865;DHT22;3471;49.678;8.388;2023-04-23T08:11:06;18.50;99.90
6865;DHT22;3471;49.678;8.388;2023-04-23T08:13:32;18.40;99.90
6865;DHT22;3471;49.678;8.388;2023-04-23T08:15:58;18.40;99.90
6865;DHT22;3471;49.678;8.388;2023-04-23T08:18:23;18.30;99.90
6865;DHT22;3471;49.678;8.388;2023-04-23T08:20:49;18.20;99.90
6865;DHT22;3471;49.678;8.388;2023-04-23T08:23:15;18.20;99.90
6865;DHT22;3471;49.678;8.388;2023-04-23T08:25:40;18.20;99.90
6865;DHT22;3471;49.678;8.388;2023-04-23T08:28:06;18.40;99.90
6865;DHT22;3471;49.678;8.388;2023-04-23T08:30:32;18.60;99.90
6865;DHT22;3471;49.678;8.388;2023-04-23T08:32:57;18.70;99.90
6865;DHT22;3471;49.678;8.388;2023-04-23T08:35:23;18.90;99.90
6865;DHT22;3471;49.678;8.388;2023-04-23T08:37:49;19.00;99.90
6865;DHT22;3471;49.678;8.388;2023-04-23T08:40:15;19.10;99.90
6865;DHT22;3471;49.678;8.388;2023-04-23T08:42:49;19.20;99.90
6865;DHT22;3471;49.678;8.388;2023-04-23T08:45:18;19.20;99.90
6865;DHT22;3471;49.678;8.388;2023-04-23T08:47:44;19.30;99.90
6865;DHT22;3471;49.678;8.388;2023-04-23T08:50:11;19.30;99.90
6865;DHT22;3471;49.678;8.388;2023-04-23T08:52:45;19.40;99.90
6865;DHT22;3471;49.678;8.388;2023-04-23T08:55:11;19.40;99.90
6865;DHT22;3471;49.678;8.388;2023-04-23T08:57:39;19.40;99.90
6865;DHT22;3471;49.678;8.388;2023-04-23T09:00:09;19.50;99.90
6865;DHT22;3471;49.678;8.388;2023-04-23T09:02:36;19.60;99.90
6865;DHT22;3471;49.678;8.388;2023-04-23T09:05:04;19.80;99.90
6865;DHT22;3471;49.678;8.388;2023-04-23T09:07:30;19.80;99.90
6865;DHT22;3471;49.678;8.388;2023-04-23T09:09:55;19.90;99.90
6865;DHT22;3471;49.678;8.388;2023-04-23T09:12:23;20.00;99.90
6865;DHT22;3471;49.678;8.388;2023-04-23T09:14:49;20.10;99.90
6865;DHT22;3471;49.678;8.388;2023-04-23T09:17:17;20.30;99.90
6865;DHT22;3471;49.678;8.388;2023-04-23T09:19:44;20.50;99.90
6865;DHT22;3471;49.678;8.388;2023-04-23T09:22:10;20.70;99.90
6865;DHT22;3471;49.678;8.388;2023-04-23T09:24:36;20.90;99.90
6865;DHT22;3471;49.678;8.388;2023-04-23T09:27:02;20.80;99.90
6865;DHT22;3471;49.678;8.388;2023-04-23T09:29:29;20.90;99.90
6865;DHT22;3471;49.678;8.388;2023-04-23T09:32:06;20.90;99.90
6865;DHT22;3471;49.678;8.388;2023-04-23T09:34:37;20.90;99.90
6865;DHT22;3471;49.678;8.388;2023-04-23T09:37:04;20.80;99.90
6865;DHT22;3471;49.678;8.388;2023-04-23T09:39:33;20.70;99.90
6865;DHT22;3471;49.678;8.388;2023-04-23T09:42:04;20.50;99.90
6865;DHT22;3471;49.678;8.388;2023-04-23T09:44:33;20.50;99.90
6865;DHT22;3471;49.678;8.388;2023-04-23T09:47:06;20.50;99.90
6865;DHT22;3471;49.678;8.388;2023-04-23T09:49:44;20.60;99.90
6865;DHT22;3471;49.678;8.388;2023-04-23T09:52:11;20.70;99.90
6865;DHT22;3471;49.678;8.388;2023-04-23T09:54:36;20.70;99.90
6865;DHT22;3471;49.678;8.388;2023-04-23T09:57:04;20.70;99.90
6865;DHT22;3471;49.678;8.388;2023-04-23T09:59:35;20.50;99.90
6865;DHT22;3471;49.678;8.388;2023-04-23T10:02:03;20.40;99.90
6865;DHT22;3471;49.678;8.388;2023-04-23T10:04:29;20.30;99.90
6865;DHT22;3471;49.678;8.388;2023-04-23T10:07:02;20.30;99.90
6865;DHT22;3471;49.678;8.388;2023-04-23T10:09:30;20.10;99.90
6865;DHT22;3471;49.678;8.388;2023-04-23T10:11:57;19.90;99.90
6865;DHT22;3471;49.678;8.388;2023-04-23T10:14:25;19.80;99.90
6865;DHT22;3471;49.678;8.388;2023-04-23T10:19:22;20.00;99.90
6865;DHT22;3471;49.678;8.388;2023-04-23T10:21:52;20.20;99.90
6865;DHT22;3471;49.678;8.388;2023-04-23T10:24:24;20.50;99.90
6865;DHT22;3471;49.678;8.388;2023-04-23T10:26:56;20.60;99.90
6865;DHT22;3471;49.678;8.388;2023-04-23T10:29:26;20.70;99.90
6865;DHT22;3471;49.678;8.388;2023-04-23T10:31:55;20.70;99.90
6865;DHT22;3471;49.678;8.388;2023-04-23T10:34:23;20.60;99.90
6865;DHT22;3471;49.678;8.388;2023-04-23T10:36:50;20.60;99.90
6865;DHT22;3471;49.678;8.388;2023-04-23T10:39:17;20.50;99.90
6865;DHT22;3471;49.678;8.388;2023-04-23T10:41:43;20.50;99.90
6865;DHT22;3471;49.678;8.388;2023-04-23T10:44:11;20.60;99.90
6865;DHT22;3471;49.678;8.388;2023-04-23T10:46:37;20.80;99.90
6865;DHT22;3471;49.678;8.388;2023-04-23T10:49:11;20.90;99.90
6865;DHT22;3471;49.678;8.388;2023-04-23T10:51:40;21.20;99.90
6865;DHT22;3471;49.678;8.388;2023-04-23T10:54:08;21.30;99.90
6865;DHT22;3471;49.678;8.388;2023-04-23T10:56:40;21.40;99.90
6865;DHT22;3471;49.678;8.388;2023-04-23T10:59:26;21.40;99.90
6865;DHT22;3471;49.678;8.388;2023-04-23T11:02:05;21.50;99.90
6865;DHT22;3471;49.678;8.388;2023-04-23T11:04:32;21.50;99.90
6865;DHT22;3471;49.678;8.388;2023-04-23T11:07:10;21.50;99.90
6865;DHT22;3471;49.678;8.388;2023-04-23T11:09:42;21.40;99.90
6865;DHT22;3471;49.678;8.388;2023-04-23T11:12:30;21.30;99.90
6865;DHT22;3471;49.678;8.388;2023-04-23T11:14:57;21.30;99.90
6865;DHT22;3471;49.678;8.388;2023-04-23T11:22:38;21.40;99.90
6865;DHT22;3471;49.678;8.388;2023-04-23T11:25:24;21.40;99.90
6865;DHT22;3471;49.678;8.388;2023-04-23T11:27:52;21.40;99.90
6865;DHT22;3471;49.678;8.388;2023-04-23T11:30:23;21.40;99.90
6865;DHT22;3471;49.678;8.388;2023-04-23T11:32:51;21.20;99.90
6865;DHT22;3471;49.678;8.388;2023-04-23T11:35:18;21.30;99.90
6865;DHT22;3471;49.678;8.388;2023-04-23T11:37:45;21.30;99.90
6865;DHT22;3471;49.678;8.388;2023-04-23T11:40:14;21.60;99.90
6865;DHT22;3471;49.678;8.388;2023-04-23T11:42:53;21.90;99.90
6865;DHT22;3471;49.678;8.388;2023-04-23T11:45:22;22.20;99.90
6865;DHT22;3471;49.678;8.388;2023-04-23T11:47:50;22.30;99.90
6865;DHT22;3471;49.678;8.388;2023-04-23T11:50:22;22.30;99.90
6865;DHT22;3471;49.678;8.388;2023-04-23T11:52:48;22.20;99.90
6865;DHT22;3471;49.678;8.388;2023-04-23T11:55:14;22.20;99.90
6865;DHT22;3471;49.678;8.388;2023-04-23T11:57:42;22.10;99.90
6865;DHT22;3471;49.678;8.388;2023-04-23T12:03:00;22.20;99.90
6865;DHT22;3471;49.678;8.388;2023-04-23T12:05:34;22.30;99.90
6865;DHT22;3471;49.678;8.388;2023-04-23T12:08:08;22.40;99.90
6865;DHT22;3471;49.678;8.388;2023-04-23T12:10:52;22.60;99.90
6865;DHT22;3471;49.678;8.388;2023-04-23T12:13:28;22.70;99.90
6865;DHT22;3471;49.678;8.388;2023-04-23T12:15:57;22.80;99.90
6865;DHT22;3471;49.678;8.388;2023-04-23T12:18:34;22.90;99.90
6865;DHT22;3471;49.678;8.388;2023-04-23T12:21:12;23.20;99.90
6865;DHT22;3471;49.678;8.388;2023-04-23T12:23:39;23.40;99.90
6865;DHT22;3471;49.678;8.388;2023-04-23T12:26:13;23.70;99.90
6865;DHT22;3471;49.678;8.388;2023-04-23T12:28:54;24.00;99.90
6865;DHT22;3471;49.678;8.388;2023-04-23T12:31:24;24.20;99.90
6865;DHT22;3471;49.678;8.388;2023-04-23T12:34:03;24.40;99.90
6865;DHT22;3471;49.678;8.388;2023-04-23T12:36:29;24.60;99.90
6865;DHT22;3471;49.678;8.388;2023-04-23T12:41:44;24.70;99.90
6865;DHT22;3471;49.678;8.388;2023-04-23T12:44:10;24.60;99.90
6865;DHT22;3471;49.678;8.388;2023-04-23T12:46:35;24.70;99.90
6865;DHT22;3471;49.678;8.388;2023-04-23T12:49:01;24.90;99.90
6865;DHT22;3471;49.678;8.388;2023-04-23T12:51:26;25.10;99.90
6865;DHT22;3471;49.678;8.388;2023-04-23T12:53:52;25.40;99.90
6865;DHT22;3471;49.678;8.388;2023-04-23T12:56:18;25.60;99.90
6865;DHT22;3471;49.678;8.388;2023-04-23T12:58:44;25.80;99.50
6865;DHT22;3471;49.678;8.388;2023-04-23T13:01:09;25.90;99.80
6865;DHT22;3471;49.678;8.388;2023-04-23T13:03:36;26.20;98.40
6865;DHT22;3471;49.678;8.388;2023-04-23T13:06:02;26.50;98.10
6865;DHT22;3471;49.678;8.388;2023-04-23T13:08:28;26.80;98.20
6865;DHT22;3471;49.678;8.388;2023-04-23T13:10:53;27.00;96.60
6865;DHT22;3471;49.678;8.388;2023-04-23T13:13:19;26.90;98.80
6865;DHT22;3471;49.678;8.388;2023-04-23T13:15:45;27.10;97.00
6865;DHT22;3471;49.678;8.388;2023-04-23T13:18:10;27.20;97.10
6865;DHT22;3471;49.678;8.388;2023-04-23T13:20:36;26.90;96.70
6865;DHT22;3471;49.678;8.388;2023-04-23T13:23:01;26.50;96.90
6865;DHT22;3471;49.678;8.388;2023-04-23T13:25:27;26.10;97.80
6865;DHT22;3471;49.678;8.388;2023-04-23T13:27:54;25.70;98.70
6865;DHT22;3471;49.678;8.388;2023-04-23T13:30:20;25.20;97.40
6865;DHT22;3471;49.678;8.388;2023-04-23T13:32:46;25.00;95.90
6865;DHT22;3471;49.678;8.388;2023-04-23T13:35:11;24.80;98.80
6865;DHT22;3471;49.678;8.388;2023-04-23T13:37:38;24.70;96.50
6865;DHT22;3471;49.678;8.388;2023-04-23T13:40:05;24.60;99.30
6865;DHT22;3471;49.678;8.388;2023-04-23T13:42:31;24.60;99.00
6865;DHT22;3471;49.678;8.388;2023-04-23T13:44:58;24.90;98.90
6865;DHT22;3471;49.678;8.388;2023-04-23T13:47:24;25.30;98.90
6865;DHT22;3471;49.678;8.388;2023-04-23T13:49:51;25.90;98.20
6865;DHT22;3471;49.678;8.388;2023-04-23T13:52:17;26.40;97.70
6865;DHT22;3471;49.678;8.388;2023-04-23T13:54:42;26.80;96.80
6865;DHT22;3471;49.678;8.388;2023-04-23T13:57:08;27.30;96.70
6865;DHT22;3471;49.678;8.388;2023-04-23T13:59:34;27.80;92.60
6865;DHT22;3471;49.678;8.388;2023-04-23T14:02:00;27.80;94.30
6865;DHT22;3471;49.678;8.388;2023-04-23T14:04:25;27.90;93.90
6865;DHT22;3471;49.678;8.388;2023-04-23T14:06:51;27.90;91.30
6865;DHT22;3471;49.678;8.388;2023-04-23T14:09:17;28.10;92.10
6865;DHT22;3471;49.678;8.388;2023-04-23T14:11:43;28.20;92.40
6865;DHT22;3471;49.678;8.388;2023-04-23T14:14:09;28.40;92.30
6865;DHT22;3471;49.678;8.388;2023-04-23T14:16:34;28.40;92.90
6865;DHT22;3471;49.678;8.388;2023-04-23T14:19:00;28.30;92.20
6865;DHT22;3471;49.678;8.388;2023-04-23T14:21:26;28.00;93.20
6865;DHT22;3471;49.678;8.388;2023-04-23T14:23:56;27.70;91.20
6865;DHT22;3471;49.678;8.388;2023-04-23T14:31:45;26.30;90.80
6865;DHT22;3471;49.678;8.388;2023-04-23T14:34:11;25.70;92.40
6865;DHT22;3471;49.678;8.388;2023-04-23T14:36:36;25.40;92.70
6865;DHT22;3471;49.678;8.388;2023-04-23T14:39:02;24.90;91.90
6865;DHT22;3471;49.678;8.388;2023-04-23T14:41:32;24.60;92.80
6865;DHT22;3471;49.678;8.388;2023-04-23T14:44:01;24.30;94.60
6865;DHT22;3471;49.678;8.388;2023-04-23T14:46:27;24.00;95.50
6865;DHT22;3471;49.678;8.388;2023-04-23T14:48:53;23.70;93.60
6865;DHT22;3471;49.678;8.388;2023-04-23T14:51:18;23.60;96.50
6865;DHT22;3471;49.678;8.388;2023-04-23T14:53:44;23.30;95.40
6865;DHT22;3471;49.678;8.388;2023-04-23T14:56:10;23.20;94.80
6865;DHT22;3471;49.678;8.388;2023-04-23T14:58:35;23.00;94.70
6865;DHT22;3471;49.678;8.388;2023-04-23T15:01:01;22.90;96.90
6865;DHT22;3471;49.678;8.388;2023-04-23T15:03:27;22.80;98.00
6865;DHT22;3471;49.678;8.388;2023-04-23T15:05:52;22.60;97.30
6865;DHT22;3471;49.678;8.388;2023-04-23T15:08:19;22.40;98.40
6865;DHT22;3471;49.678;8.388;2023-04-23T15:10:45;22.20;97.20
6865;DHT22;3471;49.678;8.388;2023-04-23T15:15:50;21.90;96.70
6865;DHT22;3471;49.678;8.388;2023-04-23T15:18:19;21.70;97.40
6865;DHT22;3471;49.678;8.388;2023-04-23T15:20:45;21.50;98.20
6865;DHT22;3471;49.678;8.388;2023-04-23T15:23:11;21.30;98.70
6865;DHT22;3471;49.678;8.388;2023-04-23T15:25:36;21.20;98.10
6865;DHT22;3471;49.678;8.388;2023-04-23T15:28:03;21.00;98.40
6865;DHT22;3471;49.678;8.388;2023-04-23T15:30:30;20.90;97.80
6865;DHT22;3471;49.678;8.388;2023-04-23T15:32:55;20.70;98.30
6865;DHT22;3471;49.678;8.388;2023-04-23T15:35:22;20.60;96.90
6865;DHT22;3471;49.678;8.388;2023-04-23T15:37:48;20.50;97.20
6865;DHT22;3471;49.678;8.388;2023-04-23T15:40:14;20.30;99.00
6865;DHT22;3471;49.678;8.388;2023-04-23T15:42:39;20.20;97.90
6865;DHT22;3471;49.678;8.388;2023-04-23T15:45:12;20.10;99.70
6865;DHT22;3471;49.678;8.388;2023-04-23T15:47:38;19.90;99.90
6865;DHT22;3471;49.678;8.388;2023-04-23T15:50:04;19.70;99.90
6865;DHT22;3471;49.678;8.388;2023-04-23T15:52:30;19.50;99.90
6865;DHT22;3471;49.678;8.388;2023-04-23T15:54:56;19.40;99.90
6865;DHT22;3471;49.678;8.388;2023-04-23T15:57:22;19.30;99.90
6865;DHT22;3471;49.678;8.388;2023-04-23T15:59:48;19.20;99.90
6865;DHT22;3471;49.678;8.388;2023-04-23T16:02:14;19.10;99.90
6865;DHT22;3471;49.678;8.388;2023-04-23T16:04:39;19.10;99.90
6865;DHT22;3471;49.678;8.388;2023-04-23T16:07:06;19.10;99.90
6865;DHT22;3471;49.678;8.388;2023-04-23T16:09:31;19.00;99.90
6865;DHT22;3471;49.678;8.388;2023-04-23T16:11:57;19.00;99.90
6865;DHT22;3471;49.678;8.388;2023-04-23T16:14:23;18.80;99.90
6865;DHT22;3471;49.678;8.388;2023-04-23T16:16:49;18.60;99.90
6865;DHT22;3471;49.678;8.388;2023-04-23T16:19:14;18.40;99.90
6865;DHT22;3471;49.678;8.388;2023-04-23T16:21:40;18.20;99.90